Aviation Digital Data Service (ADDS)

Output produced by METARs form (0207 UTC 11 December 2016)
found at http://aviationweather.gov/adds/metars/
 
KMSS 102331Z 1100/1124 00000KT P6SM FEW120 
     FM111700 VRB05KT P6SM SCT150 
     FM112000 11006KT P6SM VCSH BKN150